createdAt,value
2023-04-21T00:00:09.893Z,9.30
2023-04-21T00:02:39.610Z,9.33
2023-04-21T00:05:10.317Z,9.45
2023-04-21T00:07:37.926Z,9.34
2023-04-21T00:10:07.576Z,9.28
2023-04-21T00:12:34.125Z,9.26
2023-04-21T00:15:00.985Z,9.37
2023-04-21T00:17:27.937Z,9.40
2023-04-21T00:19:54.691Z,9.14
2023-04-21T00:22:21.381Z,9.32
2023-04-21T00:24:48.168Z,9.08
2023-04-21T00:27:15.637Z,9.13
2023-04-21T00:29:42.278Z,8.98
2023-04-21T00:32:10.179Z,9.03
2023-04-21T00:34:36.966Z,8.93
2023-04-21T00:37:03.345Z,9.12
2023-04-21T00:39:29.845Z,8.86
2023-04-21T00:41:57.395Z,8.81
2023-04-21T00:44:23.871Z,8.83
2023-04-21T00:46:50.494Z,8.84
2023-04-21T00:49:17.332Z,8.86
2023-04-21T00:51:43.938Z,8.93
2023-04-21T00:54:11.945Z,8.99
2023-04-21T00:56:38.407Z,8.93
2023-04-21T00:59:05.168Z,8.89
2023-04-21T01:01:32.188Z,9.00
2023-04-21T01:04:00.264Z,8.69
2023-04-21T01:06:32.368Z,8.83
2023-04-21T01:08:59.025Z,8.71
2023-04-21T01:11:26.394Z,8.74
2023-04-21T01:13:56.774Z,8.73
2023-04-21T01:16:24.312Z,8.84
2023-04-21T01:18:53.399Z,8.86
2023-04-21T01:21:21.545Z,8.76
2023-04-21T01:23:48.107Z,8.79
2023-04-21T01:26:18.519Z,8.67
2023-04-21T01:28:45.091Z,8.65
2023-04-21T01:31:11.521Z,8.68
2023-04-21T01:33:37.982Z,8.82
2023-04-21T01:51:08.754Z,7.67
2023-04-21T01:53:35.182Z,7.92
2023-04-21T01:56:01.676Z,8.07
2023-04-21T01:58:28.137Z,8.27
2023-04-21T02:00:54.571Z,8.29
2023-04-21T02:03:21.322Z,8.40
2023-04-21T02:05:47.904Z,8.32
2023-04-21T02:08:14.348Z,8.29
2023-04-21T02:10:40.927Z,8.44
2023-04-21T02:13:07.524Z,8.47
2023-04-21T02:15:34.103Z,8.43
2023-04-21T02:18:00.696Z,8.26
2023-04-21T02:20:27.269Z,8.50
2023-04-21T02:22:53.746Z,8.62
2023-04-21T02:25:20.324Z,8.30
2023-04-21T02:27:46.750Z,8.28
2023-04-21T02:30:13.351Z,8.45
2023-04-21T02:32:40.000Z,8.35
2023-04-21T02:35:06.538Z,8.48
2023-04-21T02:37:33.117Z,8.32
2023-04-21T02:39:59.565Z,8.42
2023-04-21T02:42:26.001Z,8.41
2023-04-21T02:44:52.468Z,8.54
2023-04-21T02:47:18.922Z,8.34
2023-04-21T02:49:45.461Z,8.52
2023-04-21T02:52:11.884Z,8.45
2023-04-21T02:54:38.348Z,8.47
2023-04-21T02:57:04.954Z,8.46
2023-04-21T02:59:31.405Z,8.50
2023-04-21T03:01:57.884Z,8.63
2023-04-21T03:04:25.552Z,8.61
2023-04-21T03:06:53.108Z,8.56
2023-04-21T03:09:19.902Z,8.49
2023-04-21T03:11:46.638Z,8.50
2023-04-21T03:14:13.159Z,8.34
2023-04-21T03:16:39.672Z,8.33
2023-04-21T03:19:06.127Z,8.25
2023-04-21T03:21:32.583Z,8.50
2023-04-21T03:23:59.036Z,8.55
2023-04-21T03:26:25.718Z,8.39
2023-04-21T03:28:52.226Z,8.52
2023-04-21T03:31:18.673Z,8.44
2023-04-21T03:33:45.131Z,8.40
2023-04-21T03:36:11.582Z,8.37
2023-04-21T03:38:38.057Z,8.35
2023-04-21T03:41:04.998Z,8.54
2023-04-21T03:43:31.634Z,8.48
2023-04-21T03:45:58.180Z,8.53
2023-04-21T03:48:24.631Z,8.45
2023-04-21T03:50:53.394Z,8.42
2023-04-21T03:53:19.824Z,8.48
2023-04-21T03:55:48.858Z,8.47
2023-04-21T03:58:18.720Z,8.22
2023-04-21T04:00:45.204Z,8.30
2023-04-21T04:03:11.778Z,8.37
2023-04-21T04:05:38.652Z,8.50
2023-04-21T04:08:05.428Z,8.25
2023-04-21T04:10:31.969Z,8.20
2023-04-21T04:12:58.454Z,8.31
2023-04-21T04:15:25.034Z,8.23
2023-04-21T04:17:54.043Z,8.33
2023-04-21T04:20:20.488Z,8.28
2023-04-21T04:22:46.914Z,8.32
2023-04-21T04:25:15.061Z,8.21
2023-04-21T04:27:41.521Z,8.22
2023-04-21T04:30:08.695Z,8.21
2023-04-21T04:32:35.185Z,8.22
2023-04-21T04:35:02.570Z,8.16
2023-04-21T04:37:28.983Z,8.28
2023-04-21T04:39:55.480Z,8.32
2023-04-21T04:42:21.910Z,8.41
2023-04-21T04:44:48.376Z,8.37
2023-04-21T04:47:14.828Z,8.54
2023-04-21T04:49:41.337Z,8.37
2023-04-21T04:52:08.176Z,8.57
2023-04-21T04:54:34.708Z,8.59
2023-04-21T04:57:01.209Z,8.58
2023-04-21T04:59:29.963Z,8.50
2023-04-21T05:01:57.390Z,8.42
2023-04-21T05:04:27.578Z,8.33
2023-04-21T05:06:54.415Z,8.63
2023-04-21T05:09:21.018Z,8.74
2023-04-21T05:11:47.566Z,8.80
2023-04-21T05:14:14.027Z,8.82
2023-04-21T05:16:40.657Z,8.84
2023-04-21T05:19:07.135Z,8.87
2023-04-21T05:21:33.785Z,9.05
2023-04-21T05:24:00.984Z,8.98
2023-04-21T05:26:29.275Z,9.11
2023-04-21T05:28:56.721Z,9.33
2023-04-21T05:31:24.285Z,9.27
2023-04-21T05:33:50.915Z,9.44
2023-04-21T05:36:17.591Z,9.53
2023-04-21T05:38:43.973Z,9.77
2023-04-21T05:41:10.396Z,9.73
2023-04-21T05:43:36.853Z,9.74
2023-04-21T05:46:08.576Z,9.95
2023-04-21T05:48:35.437Z,9.96
2023-04-21T05:51:08.751Z,10.02
2023-04-21T05:53:35.353Z,10.15
2023-04-21T05:56:01.799Z,10.20
2023-04-21T05:58:28.301Z,10.56
2023-04-21T06:00:54.779Z,10.45
2023-04-21T06:03:21.387Z,11.00
2023-04-21T06:05:47.946Z,10.91
2023-04-21T06:08:14.402Z,11.17
2023-04-21T06:10:41.475Z,11.49
2023-04-21T06:13:07.948Z,11.79
2023-04-21T06:15:34.434Z,12.02
2023-04-21T06:18:01.437Z,12.26
2023-04-21T06:20:28.683Z,12.45
2023-04-21T06:22:55.372Z,12.10
2023-04-21T06:25:22.069Z,12.68
2023-04-21T06:27:48.492Z,13.36
2023-04-21T06:30:15.272Z,14.12
2023-04-21T06:32:41.734Z,14.97
2023-04-21T06:35:08.735Z,14.26
2023-04-21T06:37:35.287Z,12.95
2023-04-21T06:40:01.785Z,12.42
2023-04-21T06:42:28.267Z,12.60
2023-04-21T06:44:56.228Z,12.35
2023-04-21T06:47:23.036Z,12.31
2023-04-21T06:49:49.603Z,12.41
2023-04-21T06:52:16.359Z,12.40
2023-04-21T06:54:44.152Z,12.03
2023-04-21T06:57:10.633Z,12.60
2023-04-21T06:59:37.107Z,13.41
2023-04-21T07:02:03.573Z,13.98
2023-04-21T07:04:32.305Z,14.56
2023-04-21T07:07:00.574Z,14.00
2023-04-21T07:09:28.975Z,14.15
2023-04-21T07:11:58.557Z,14.12
2023-04-21T07:14:25.038Z,14.22
2023-04-21T07:16:57.148Z,14.09
2023-04-21T07:19:23.658Z,14.36
2023-04-21T07:21:50.328Z,14.38
2023-04-21T07:24:16.774Z,14.07
2023-04-21T07:26:43.233Z,13.95
2023-04-21T07:29:09.684Z,13.47
2023-04-21T07:31:36.648Z,13.55
2023-04-21T07:34:03.238Z,13.49
2023-04-21T07:36:33.255Z,13.87
2023-04-21T07:39:00.457Z,14.45
2023-04-21T07:41:28.251Z,15.24
2023-04-21T07:43:55.496Z,16.30
2023-04-21T07:46:23.627Z,15.96
2023-04-21T07:48:50.271Z,15.59
2023-04-21T07:51:18.012Z,15.55
2023-04-21T07:53:44.551Z,15.75
2023-04-21T07:56:13.014Z,16.07
2023-04-21T07:58:39.566Z,17.01
2023-04-21T08:01:06.027Z,17.48
2023-04-21T08:03:32.692Z,17.52
2023-04-21T08:05:59.436Z,17.85
2023-04-21T08:08:26.166Z,17.92
2023-04-21T08:10:53.411Z,18.34
2023-04-21T08:13:21.057Z,18.72
2023-04-21T08:15:47.764Z,18.95
2023-04-21T08:18:17.808Z,18.65
2023-04-21T08:20:47.811Z,19.00
2023-04-21T08:23:15.207Z,18.21
2023-04-21T08:25:41.851Z,18.07
2023-04-21T08:28:08.560Z,18.19
2023-04-21T08:30:34.962Z,18.32
2023-04-21T08:33:01.430Z,17.58
2023-04-21T08:35:27.906Z,17.42
2023-04-21T08:37:54.370Z,17.58
2023-04-21T08:40:20.822Z,17.12
2023-04-21T08:42:48.561Z,17.31
2023-04-21T08:45:15.185Z,17.78
2023-04-21T08:47:42.183Z,17.84
2023-04-21T08:50:13.336Z,17.58
2023-04-21T08:52:39.858Z,17.73
2023-04-21T08:55:07.671Z,17.44
2023-04-21T08:57:34.278Z,17.27
2023-04-21T09:00:01.115Z,17.28
2023-04-21T09:02:27.746Z,17.38
2023-04-21T09:04:55.940Z,17.07
2023-04-21T09:07:43.491Z,16.97
2023-04-21T09:10:10.068Z,16.89
2023-04-21T09:12:40.075Z,16.89
2023-04-21T09:15:10.002Z,17.12
2023-04-21T09:17:38.322Z,17.09
2023-04-21T09:20:14.646Z,17.21
2023-04-21T09:22:41.375Z,17.35
2023-04-21T09:25:07.847Z,17.40
2023-04-21T09:27:37.959Z,17.30
2023-04-21T09:30:07.440Z,17.63
2023-04-21T09:32:39.099Z,17.23
2023-04-21T09:35:10.739Z,17.56
2023-04-21T09:37:38.644Z,17.39
2023-04-21T09:40:05.906Z,17.58
2023-04-21T09:42:35.491Z,17.28
2023-04-21T09:47:42.835Z,17.70
2023-04-21T09:50:12.883Z,18.15
2023-04-21T09:52:40.331Z,17.94
2023-04-21T09:55:13.584Z,18.08
2023-04-21T09:57:43.060Z,18.01
2023-04-21T10:00:12.186Z,17.83
2023-04-21T10:02:44.632Z,18.03
2023-04-21T10:05:12.641Z,17.97
2023-04-21T10:11:08.827Z,18.21
2023-04-21T10:13:36.863Z,18.30
2023-04-21T10:16:04.806Z,18.37
2023-04-21T10:18:31.313Z,18.51
2023-04-21T10:21:20.120Z,18.88
2023-04-21T10:23:52.201Z,18.71
2023-04-21T10:26:35.439Z,18.56
2023-04-21T10:29:06.474Z,19.03
2023-04-21T10:31:37.641Z,18.67
2023-04-21T10:34:13.242Z,18.81
2023-04-21T10:36:48.777Z,18.66
2023-04-21T10:39:29.664Z,18.79
2023-04-21T10:41:58.430Z,18.84
2023-04-21T10:44:25.174Z,18.90
2023-04-21T10:46:52.574Z,18.82
2023-04-21T10:49:19.008Z,18.77
2023-04-21T10:52:08.746Z,18.98
2023-04-21T10:54:47.830Z,19.20
2023-04-21T10:57:19.792Z,19.14
2023-04-21T10:59:47.393Z,19.47
2023-04-21T11:02:16.658Z,19.41
2023-04-21T11:04:49.833Z,19.31
2023-04-21T11:07:18.430Z,19.00
2023-04-21T11:09:47.035Z,19.17
2023-04-21T11:12:20.451Z,19.26
2023-04-21T11:14:48.279Z,19.16
2023-04-21T11:17:20.753Z,19.08
2023-04-21T11:19:55.313Z,19.42
2023-04-21T11:22:24.244Z,19.12
2023-04-21T11:24:55.493Z,19.22
2023-04-21T11:27:22.546Z,19.50
2023-04-21T11:29:52.978Z,19.28
2023-04-21T11:32:19.434Z,19.15
2023-04-21T11:34:46.363Z,19.15
2023-04-21T11:37:20.923Z,19.12
2023-04-21T11:39:47.382Z,19.13
2023-04-21T11:42:20.980Z,19.26
2023-04-21T11:44:47.429Z,18.96
2023-04-21T11:47:18.514Z,18.95
2023-04-21T11:49:47.152Z,19.27
2023-04-21T11:52:24.113Z,19.53
2023-04-21T11:54:59.704Z,19.29
2023-04-21T11:57:28.135Z,19.37
2023-04-21T11:59:55.037Z,19.45
2023-04-21T12:02:24.172Z,19.48
2023-04-21T12:05:05.284Z,19.17
2023-04-21T12:07:33.390Z,19.16
2023-04-21T12:10:01.512Z,19.35
2023-04-21T12:12:28.564Z,19.33
2023-04-21T12:14:55.211Z,19.51
2023-04-21T12:17:21.651Z,19.45
2023-04-21T12:19:48.306Z,19.41
2023-04-21T12:22:18.240Z,19.32
2023-04-21T12:24:45.891Z,19.13
2023-04-21T12:27:13.584Z,19.48
2023-04-21T12:29:43.961Z,19.35
2023-04-21T12:32:10.651Z,19.71
2023-04-21T12:34:39.132Z,19.66
2023-04-21T12:37:06.300Z,19.62
2023-04-21T12:39:33.812Z,19.74
2023-04-21T12:42:07.169Z,19.75
2023-04-21T12:44:33.931Z,19.62
2023-04-21T12:47:00.579Z,19.49
2023-04-21T12:49:27.470Z,19.44
2023-04-21T12:51:53.978Z,19.88
2023-04-21T12:54:20.393Z,19.84
2023-04-21T12:56:47.007Z,19.78
2023-04-21T12:59:13.628Z,19.48
2023-04-21T13:01:41.804Z,20.03
2023-04-21T13:04:08.942Z,20.01
2023-04-21T13:06:35.866Z,19.88
2023-04-21T13:09:02.368Z,20.22
2023-04-21T13:11:28.803Z,19.74
2023-04-21T13:13:55.261Z,19.68
2023-04-21T13:16:21.822Z,19.87
2023-04-21T13:18:48.281Z,19.77
2023-04-21T13:21:14.760Z,19.46
2023-04-21T13:23:41.495Z,19.61
2023-04-21T13:26:08.329Z,19.83
2023-04-21T13:28:35.054Z,19.70
2023-04-21T13:31:01.585Z,19.72
2023-04-21T13:33:28.138Z,19.58
2023-04-21T13:35:54.635Z,19.54
2023-04-21T13:38:21.234Z,19.41
2023-04-21T13:40:49.040Z,19.48
2023-04-21T13:43:15.775Z,19.53
2023-04-21T13:45:42.203Z,19.53
2023-04-21T13:48:08.660Z,19.64
2023-04-21T13:50:35.285Z,19.81
2023-04-21T13:53:01.925Z,20.20
2023-04-21T13:55:28.417Z,19.97
2023-04-21T13:57:54.869Z,20.02
2023-04-21T14:00:22.071Z,19.91
2023-04-21T14:02:49.421Z,20.25
2023-04-21T14:05:16.444Z,19.71
2023-04-21T14:07:43.254Z,19.71
2023-04-21T14:10:11.418Z,19.93
2023-04-21T14:12:38.108Z,20.00
2023-04-21T14:15:07.964Z,19.85
2023-04-21T14:17:34.575Z,19.51
2023-04-21T14:20:01.151Z,20.06
2023-04-21T14:22:28.392Z,19.68
2023-04-21T14:24:55.002Z,19.90
2023-04-21T14:27:21.470Z,19.69
2023-04-21T14:29:47.980Z,19.90
2023-04-21T14:32:20.458Z,19.64
2023-04-21T14:34:47.280Z,20.08
2023-04-21T14:37:15.091Z,19.86
2023-04-21T14:39:41.736Z,20.04
2023-04-21T14:42:08.138Z,20.13
2023-04-21T14:44:35.857Z,20.00
2023-04-21T14:47:09.611Z,20.16
2023-04-21T14:49:38.459Z,20.13
2023-04-21T14:52:05.158Z,20.29
2023-04-21T14:54:31.660Z,20.12
2023-04-21T14:57:10.621Z,19.57
2023-04-21T14:59:46.641Z,19.71
2023-04-21T15:02:13.851Z,19.61
2023-04-21T15:04:43.859Z,20.02
2023-04-21T15:07:10.458Z,19.94
2023-04-21T15:09:37.204Z,19.63
2023-04-21T15:12:04.339Z,19.93
2023-04-21T15:14:30.879Z,20.02
2023-04-21T15:16:57.436Z,19.92
2023-04-21T15:19:25.530Z,19.61
2023-04-21T15:21:52.393Z,19.68
2023-04-21T15:24:19.076Z,19.79
2023-04-21T15:26:45.904Z,19.54
2023-04-21T15:29:12.508Z,19.63
2023-04-21T15:31:39.807Z,19.57
2023-04-21T15:34:06.453Z,19.57
2023-04-21T15:36:33.255Z,19.36
2023-04-21T15:38:59.775Z,19.95
2023-04-21T15:41:26.584Z,19.77
2023-04-21T15:43:53.688Z,19.62
2023-04-21T15:46:20.487Z,19.77
2023-04-21T15:48:46.986Z,19.56
2023-04-21T15:51:17.155Z,19.44
2023-04-21T15:53:47.931Z,19.67
2023-04-21T15:56:18.241Z,19.84
2023-04-21T15:58:44.799Z,19.79
2023-04-21T16:01:11.557Z,19.31
2023-04-21T16:03:40.305Z,19.45
2023-04-21T16:06:07.611Z,19.31
2023-04-21T16:08:34.340Z,18.96
2023-04-21T16:11:01.241Z,19.09
2023-04-21T16:13:28.112Z,19.19
2023-04-21T16:15:54.627Z,18.89
2023-04-21T16:18:23.146Z,19.17
2023-04-21T16:20:49.936Z,18.91
2023-04-21T16:23:16.462Z,19.24
2023-04-21T16:25:43.383Z,19.00
2023-04-21T16:28:11.599Z,18.71
2023-04-21T16:30:43.222Z,18.72
2023-04-21T16:33:11.604Z,18.62
2023-04-21T16:35:39.194Z,18.52
2023-04-21T16:38:06.547Z,18.62
2023-04-21T16:40:33.406Z,18.56
2023-04-21T16:42:59.865Z,18.44
2023-04-21T16:45:28.115Z,18.45
2023-04-21T16:47:54.926Z,18.16
2023-04-21T16:50:21.680Z,17.92
2023-04-21T16:52:48.326Z,17.91
2023-04-21T16:55:15.074Z,18.06
2023-04-21T16:57:41.809Z,18.21
2023-04-21T17:00:09.631Z,17.81
2023-04-21T17:02:36.504Z,17.61
2023-04-21T17:05:04.000Z,17.73
2023-04-21T17:07:32.121Z,17.89
2023-04-21T17:09:58.661Z,17.74
2023-04-21T17:12:25.314Z,17.74
2023-04-21T17:14:51.950Z,17.81
2023-04-21T17:17:18.640Z,17.62
2023-04-21T17:19:45.283Z,17.34
2023-04-21T17:22:11.795Z,17.42
2023-04-21T17:24:51.850Z,17.37
2023-04-21T17:27:19.616Z,17.34
2023-04-21T17:29:46.965Z,17.30
2023-04-21T17:32:13.984Z,17.11
2023-04-21T17:34:40.757Z,17.05
2023-04-21T17:37:07.260Z,17.01
2023-04-21T17:39:33.864Z,16.57
2023-04-21T17:42:02.721Z,16.70
2023-04-21T17:44:29.833Z,16.38
2023-04-21T17:46:56.753Z,16.61
2023-04-21T17:49:24.794Z,16.58
2023-04-21T17:51:53.314Z,16.40
2023-04-21T17:54:20.092Z,16.21
2023-04-21T17:56:46.649Z,16.35
2023-04-21T17:59:13.815Z,15.98
2023-04-21T18:01:40.854Z,15.80
2023-04-21T18:04:07.937Z,15.88
2023-04-21T18:06:35.573Z,15.92
2023-04-21T18:09:02.269Z,15.85
2023-04-21T18:11:29.023Z,15.76
2023-04-21T18:13:55.553Z,15.91
2023-04-21T18:16:22.460Z,15.48
2023-04-21T18:18:55.785Z,15.38
2023-04-21T18:21:22.446Z,15.25
2023-04-21T19:24:24.125Z,13.96
2023-04-21T19:26:53.904Z,13.87
2023-04-21T19:29:20.419Z,13.86
2023-04-21T19:31:47.109Z,13.90
2023-04-21T19:34:13.538Z,13.91
2023-04-21T19:36:41.643Z,13.63
2023-04-21T19:39:09.308Z,13.59
2023-04-21T19:41:36.510Z,13.51
2023-04-21T19:44:04.186Z,13.55
2023-04-21T19:46:32.182Z,13.43
2023-04-21T19:49:01.725Z,13.21
2023-04-21T19:51:28.240Z,13.31
2023-04-21T19:54:10.112Z,13.24
2023-04-21T19:56:38.204Z,13.10
2023-04-21T19:59:05.649Z,13.32
2023-04-21T20:01:33.398Z,13.07
2023-04-21T20:04:00.435Z,13.22
2023-04-21T20:06:28.633Z,13.37
2023-04-21T20:08:55.998Z,13.12
2023-04-21T20:11:23.374Z,13.12
2023-04-21T20:13:50.360Z,13.12
2023-04-21T20:16:20.077Z,12.76
2023-04-21T20:18:46.887Z,13.00
2023-04-21T20:21:20.609Z,12.93
2023-04-21T20:23:47.578Z,12.94
2023-04-21T20:26:14.172Z,12.56
2023-04-21T20:28:43.636Z,12.52
2023-04-21T20:31:10.425Z,12.48
2023-04-21T20:33:36.950Z,12.74
2023-04-21T20:36:07.489Z,12.56
2023-04-21T20:38:38.547Z,12.56
2023-04-21T20:41:05.146Z,12.54
2023-04-21T20:43:33.386Z,12.54
2023-04-21T20:46:01.424Z,12.39
2023-04-21T20:48:28.207Z,12.46
2023-04-21T20:50:54.866Z,12.46
2023-04-21T20:53:22.183Z,12.14
2023-04-21T20:55:48.925Z,12.19
2023-04-21T20:58:15.668Z,12.22
2023-04-21T21:00:42.292Z,12.43
2023-04-21T21:03:11.519Z,12.11
2023-04-21T21:05:38.469Z,12.22
2023-04-21T21:08:05.161Z,12.23
2023-04-21T21:10:31.745Z,12.14
2023-04-21T21:13:01.351Z,11.98
2023-04-21T21:15:28.197Z,12.06
2023-04-21T21:17:54.658Z,12.14
2023-04-21T21:20:21.216Z,11.88
2023-04-21T21:22:47.896Z,12.00
2023-04-21T21:25:14.354Z,12.21
2023-04-21T21:27:40.832Z,11.86
2023-04-21T21:30:08.114Z,11.63
2023-04-21T21:32:34.719Z,12.03
2023-04-21T21:35:01.286Z,12.03
2023-04-21T21:37:27.814Z,11.99
2023-04-21T21:39:55.486Z,11.99
2023-04-21T21:42:22.643Z,11.96
2023-04-21T21:44:49.164Z,12.19
2023-04-21T21:47:16.219Z,11.76
2023-04-21T21:49:45.793Z,11.86
2023-04-21T21:52:12.292Z,12.05
2023-04-21T21:54:38.943Z,12.05
2023-04-21T21:57:05.471Z,12.06
2023-04-21T21:59:31.974Z,12.14
2023-04-21T22:01:58.535Z,12.07
2023-04-21T22:04:25.162Z,12.11
2023-04-21T22:06:52.004Z,12.09
2023-04-21T22:09:18.612Z,12.03
2023-04-21T22:11:46.268Z,12.13
2023-04-21T22:14:22.724Z,11.87
2023-04-21T22:16:50.642Z,11.84
2023-04-21T22:19:19.055Z,11.60
2023-04-21T22:21:46.114Z,11.71
2023-04-21T22:24:13.032Z,11.78
2023-04-21T22:26:39.585Z,11.63
2023-04-21T22:29:06.064Z,11.61
2023-04-21T22:31:32.784Z,11.52
2023-04-21T22:33:59.162Z,11.67
2023-04-21T22:36:26.234Z,11.39
2023-04-21T22:38:52.687Z,11.39
2023-04-21T22:41:19.141Z,11.43
2023-04-21T22:43:45.662Z,11.52
2023-04-21T22:46:12.497Z,11.31
2023-04-21T22:48:38.895Z,11.60
2023-04-21T22:51:07.271Z,11.35
2023-04-21T22:53:33.945Z,11.29
2023-04-21T22:56:00.433Z,11.36
2023-04-21T22:58:26.956Z,11.40
2023-04-21T23:00:53.502Z,11.32
2023-04-21T23:03:20.172Z,11.45
2023-04-21T23:05:46.669Z,11.54
2023-04-21T23:08:13.135Z,11.25
2023-04-21T23:10:39.784Z,11.30
2023-04-21T23:13:06.828Z,11.25
2023-04-21T23:15:33.557Z,11.19
2023-04-21T23:17:59.997Z,11.33
2023-04-21T23:20:27.004Z,11.03
2023-04-21T23:22:53.418Z,11.08
2023-04-21T23:25:19.977Z,11.09
2023-04-21T23:27:46.512Z,11.18
2023-04-21T23:30:13.152Z,11.05
2023-04-21T23:32:39.865Z,11.19
2023-04-21T23:35:06.576Z,11.16
2023-04-21T23:37:33.335Z,10.99
2023-04-21T23:39:59.744Z,11.05
2023-04-21T23:42:26.181Z,10.88
2023-04-21T23:44:52.696Z,10.94
2023-04-21T23:47:19.154Z,11.09
2023-04-21T23:49:48.651Z,10.93
2023-04-21T23:52:15.132Z,11.00
2023-04-21T23:54:41.750Z,10.97
2023-04-21T23:57:08.244Z,11.06
2023-04-21T23:59:34.707Z,11.00
